sensor_id;sensor_type;location;lat;lon;timestamp;P1;durP1;ratioP1;P2;durP2;ratioP2
39176;SDS011;24904;52.208;21.192;2022-09-25T00:03:31;24.80;;;15.60;;
39176;SDS011;24904;52.208;21.192;2022-09-25T00:08:39;24.90;;;16.30;;
39176;SDS011;24904;52.208;21.192;2022-09-25T00:13:47;25.80;;;15.70;;
39176;SDS011;24904;52.208;21.192;2022-09-25T00:18:55;25.90;;;16.60;;
39176;SDS011;24904;52.208;21.192;2022-09-25T00:24:21;27.20;;;15.30;;
39176;SDS011;24904;52.208;21.192;2022-09-25T00:29:28;26.40;;;16.70;;
39176;SDS011;24904;52.208;21.192;2022-09-25T00:34:37;25.40;;;15.60;;
39176;SDS011;24904;52.208;21.192;2022-09-25T00:39:45;30.60;;;16.20;;
39176;SDS011;24904;52.208;21.192;2022-09-25T00:44:56;29.90;;;17.00;;
39176;SDS011;24904;52.208;21.192;2022-09-25T00:50:10;26.90;;;16.40;;
39176;SDS011;24904;52.208;21.192;2022-09-25T00:55:26;26.40;;;15.70;;
39176;SDS011;24904;52.208;21.192;2022-09-25T01:00:37;27.80;;;15.60;;
39176;SDS011;24904;52.208;21.192;2022-09-25T01:05:46;27.80;;;16.50;;
39176;SDS011;24904;52.208;21.192;2022-09-25T01:10:57;24.50;;;15.50;;
39176;SDS011;24904;52.208;21.192;2022-09-25T01:16:08;26.80;;;15.70;;
39176;SDS011;24904;52.208;21.192;2022-09-25T01:21:26;29.10;;;17.60;;
39176;SDS011;24904;52.208;21.192;2022-09-25T01:32:17;29.60;;;16.70;;
39176;SDS011;24904;52.208;21.192;2022-09-25T01:37:35;24.80;;;16.20;;
39176;SDS011;24904;52.208;21.192;2022-09-25T01:42:50;27.20;;;16.10;;
39176;SDS011;24904;52.208;21.192;2022-09-25T01:48:03;27.90;;;17.10;;
39176;SDS011;24904;52.208;21.192;2022-09-25T01:53:14;25.50;;;16.00;;
39176;SDS011;24904;52.208;21.192;2022-09-25T01:58:29;28.20;;;17.00;;
39176;SDS011;24904;52.208;21.192;2022-09-25T02:03:43;29.70;;;17.80;;
39176;SDS011;24904;52.208;21.192;2022-09-25T02:08:58;26.60;;;15.70;;
39176;SDS011;24904;52.208;21.192;2022-09-25T02:14:12;25.50;;;16.30;;
39176;SDS011;24904;52.208;21.192;2022-09-25T02:19:26;27.50;;;16.10;;
39176;SDS011;24904;52.208;21.192;2022-09-25T02:24:55;28.30;;;17.20;;
39176;SDS011;24904;52.208;21.192;2022-09-25T02:30:11;29.60;;;18.20;;
39176;SDS011;24904;52.208;21.192;2022-09-25T02:35:25;27.90;;;17.90;;
39176;SDS011;24904;52.208;21.192;2022-09-25T02:40:39;33.50;;;18.90;;
39176;SDS011;24904;52.208;21.192;2022-09-25T02:45:54;34.00;;;19.00;;
39176;SDS011;24904;52.208;21.192;2022-09-25T02:51:16;27.80;;;18.10;;
39176;SDS011;24904;52.208;21.192;2022-09-25T02:56:37;30.90;;;18.90;;
39176;SDS011;24904;52.208;21.192;2022-09-25T03:01:54;31.20;;;19.30;;
39176;SDS011;24904;52.208;21.192;2022-09-25T03:07:10;31.30;;;19.30;;
39176;SDS011;24904;52.208;21.192;2022-09-25T03:12:23;34.70;;;19.20;;
39176;SDS011;24904;52.208;21.192;2022-09-25T03:17:36;28.70;;;18.50;;
39176;SDS011;24904;52.208;21.192;2022-09-25T03:22:54;30.00;;;19.00;;
39176;SDS011;24904;52.208;21.192;2022-09-25T03:28:13;31.20;;;18.50;;
39176;SDS011;24904;52.208;21.192;2022-09-25T03:33:27;30.90;;;19.30;;
39176;SDS011;24904;52.208;21.192;2022-09-25T03:38:41;32.60;;;17.90;;
39176;SDS011;24904;52.208;21.192;2022-09-25T03:43:56;32.40;;;19.10;;
39176;SDS011;24904;52.208;21.192;2022-09-25T03:49:10;33.70;;;20.20;;
39176;SDS011;24904;52.208;21.192;2022-09-25T03:54:31;27.30;;;18.10;;
39176;SDS011;24904;52.208;21.192;2022-09-25T03:59:50;30.90;;;19.70;;
39176;SDS011;24904;52.208;21.192;2022-09-25T04:05:15;29.30;;;18.70;;
39176;SDS011;24904;52.208;21.192;2022-09-25T04:10:26;28.80;;;18.50;;
39176;SDS011;24904;52.208;21.192;2022-09-25T04:15:44;33.60;;;21.50;;
39176;SDS011;24904;52.208;21.192;2022-09-25T04:21:02;34.00;;;20.20;;
39176;SDS011;24904;52.208;21.192;2022-09-25T04:26:24;29.30;;;19.00;;
39176;SDS011;24904;52.208;21.192;2022-09-25T04:31:46;33.80;;;19.30;;
39176;SDS011;24904;52.208;21.192;2022-09-25T04:37:11;30.80;;;19.10;;
39176;SDS011;24904;52.208;21.192;2022-09-25T04:42:28;29.00;;;17.60;;
39176;SDS011;24904;52.208;21.192;2022-09-25T04:47:35;32.20;;;18.20;;
39176;SDS011;24904;52.208;21.192;2022-09-25T04:52:42;28.90;;;18.80;;
39176;SDS011;24904;52.208;21.192;2022-09-25T04:57:50;35.20;;;19.20;;
39176;SDS011;24904;52.208;21.192;2022-09-25T05:02:57;31.70;;;18.20;;
39176;SDS011;24904;52.208;21.192;2022-09-25T05:08:05;30.60;;;18.70;;
39176;SDS011;24904;52.208;21.192;2022-09-25T05:13:12;28.30;;;18.00;;
39176;SDS011;24904;52.208;21.192;2022-09-25T05:18:20;31.50;;;18.90;;
39176;SDS011;24904;52.208;21.192;2022-09-25T05:23:32;36.90;;;20.30;;
39176;SDS011;24904;52.208;21.192;2022-09-25T05:28:41;31.80;;;19.50;;
39176;SDS011;24904;52.208;21.192;2022-09-25T05:33:52;35.80;;;20.20;;
39176;SDS011;24904;52.208;21.192;2022-09-25T05:39:00;35.40;;;18.90;;
39176;SDS011;24904;52.208;21.192;2022-09-25T05:44:07;34.30;;;20.00;;
39176;SDS011;24904;52.208;21.192;2022-09-25T05:49:21;34.40;;;19.60;;
39176;SDS011;24904;52.208;21.192;2022-09-25T05:54:31;32.30;;;19.40;;
39176;SDS011;24904;52.208;21.192;2022-09-25T05:59:38;34.10;;;20.00;;
39176;SDS011;24904;52.208;21.192;2022-09-25T06:04:45;36.70;;;21.70;;
39176;SDS011;24904;52.208;21.192;2022-09-25T06:09:52;35.50;;;21.60;;
39176;SDS011;24904;52.208;21.192;2022-09-25T06:14:59;33.40;;;19.10;;
39176;SDS011;24904;52.208;21.192;2022-09-25T06:20:11;31.90;;;19.30;;
39176;SDS011;24904;52.208;21.192;2022-09-25T06:25:20;32.20;;;19.50;;
39176;SDS011;24904;52.208;21.192;2022-09-25T06:30:29;31.30;;;17.80;;
39176;SDS011;24904;52.208;21.192;2022-09-25T06:35:42;28.60;;;18.80;;
39176;SDS011;24904;52.208;21.192;2022-09-25T06:40:52;27.40;;;18.10;;
39176;SDS011;24904;52.208;21.192;2022-09-25T06:46:02;30.10;;;18.70;;
39176;SDS011;24904;52.208;21.192;2022-09-25T06:51:10;29.30;;;18.40;;
39176;SDS011;24904;52.208;21.192;2022-09-25T06:56:21;26.00;;;15.50;;
39176;SDS011;24904;52.208;21.192;2022-09-25T07:01:29;23.90;;;15.50;;
39176;SDS011;24904;52.208;21.192;2022-09-25T07:06:38;19.40;;;14.00;;
39176;SDS011;24904;52.208;21.192;2022-09-25T07:11:52;20.70;;;14.20;;
39176;SDS011;24904;52.208;21.192;2022-09-25T07:17:00;21.70;;;14.70;;
39176;SDS011;24904;52.208;21.192;2022-09-25T07:22:10;20.30;;;14.10;;
39176;SDS011;24904;52.208;21.192;2022-09-25T07:27:19;24.50;;;14.20;;
39176;SDS011;24904;52.208;21.192;2022-09-25T07:32:28;23.60;;;14.80;;
39176;SDS011;24904;52.208;21.192;2022-09-25T07:37:39;18.80;;;13.00;;
39176;SDS011;24904;52.208;21.192;2022-09-25T07:42:47;23.00;;;13.60;;
39176;SDS011;24904;52.208;21.192;2022-09-25T07:47:57;20.40;;;12.20;;
39176;SDS011;24904;52.208;21.192;2022-09-25T07:53:06;20.40;;;13.90;;
39176;SDS011;24904;52.208;21.192;2022-09-25T07:58:14;23.60;;;13.40;;
39176;SDS011;24904;52.208;21.192;2022-09-25T08:03:22;19.00;;;12.60;;
39176;SDS011;24904;52.208;21.192;2022-09-25T08:08:31;18.80;;;12.70;;
39176;SDS011;24904;52.208;21.192;2022-09-25T08:13:41;18.70;;;12.40;;
39176;SDS011;24904;52.208;21.192;2022-09-25T08:18:49;18.70;;;12.00;;
39176;SDS011;24904;52.208;21.192;2022-09-25T08:23:56;18.70;;;12.40;;
39176;SDS011;24904;52.208;21.192;2022-09-25T08:29:05;17.20;;;11.30;;
39176;SDS011;24904;52.208;21.192;2022-09-25T08:34:14;17.90;;;13.00;;
39176;SDS011;24904;52.208;21.192;2022-09-25T08:39:21;20.70;;;13.60;;
39176;SDS011;24904;52.208;21.192;2022-09-25T08:44:27;20.80;;;13.70;;
39176;SDS011;24904;52.208;21.192;2022-09-25T08:49:40;20.40;;;11.90;;
39176;SDS011;24904;52.208;21.192;2022-09-25T08:54:51;17.20;;;10.50;;
39176;SDS011;24904;52.208;21.192;2022-09-25T09:00:00;15.60;;;10.60;;
39176;SDS011;24904;52.208;21.192;2022-09-25T09:05:15;16.00;;;9.90;;
39176;SDS011;24904;52.208;21.192;2022-09-25T09:10:26;21.40;;;10.50;;
39176;SDS011;24904;52.208;21.192;2022-09-25T09:15:38;18.10;;;9.60;;
39176;SDS011;24904;52.208;21.192;2022-09-25T09:20:52;14.80;;;8.60;;
39176;SDS011;24904;52.208;21.192;2022-09-25T09:26:01;12.60;;;7.70;;
39176;SDS011;24904;52.208;21.192;2022-09-25T09:31:13;10.20;;;6.60;;
39176;SDS011;24904;52.208;21.192;2022-09-25T09:36:27;12.20;;;6.80;;
39176;SDS011;24904;52.208;21.192;2022-09-25T09:41:46;10.00;;;6.30;;
39176;SDS011;24904;52.208;21.192;2022-09-25T09:47:05;8.50;;;5.20;;
39176;SDS011;24904;52.208;21.192;2022-09-25T09:52:25;9.80;;;5.90;;
39176;SDS011;24904;52.208;21.192;2022-09-25T09:57:38;8.60;;;6.50;;
39176;SDS011;24904;52.208;21.192;2022-09-25T10:02:52;8.70;;;6.20;;
39176;SDS011;24904;52.208;21.192;2022-09-25T10:08:02;7.50;;;5.40;;
39176;SDS011;24904;52.208;21.192;2022-09-25T10:13:12;8.70;;;5.60;;
39176;SDS011;24904;52.208;21.192;2022-09-25T10:18:22;6.50;;;5.10;;
39176;SDS011;24904;52.208;21.192;2022-09-25T10:23:34;9.80;;;6.80;;
39176;SDS011;24904;52.208;21.192;2022-09-25T10:28:44;10.40;;;6.50;;
39176;SDS011;24904;52.208;21.192;2022-09-25T10:39:27;7.90;;;6.20;;
39176;SDS011;24904;52.208;21.192;2022-09-25T10:44:34;8.60;;;5.40;;
39176;SDS011;24904;52.208;21.192;2022-09-25T10:49:45;9.20;;;5.40;;
39176;SDS011;24904;52.208;21.192;2022-09-25T10:55:18;9.10;;;5.40;;
39176;SDS011;24904;52.208;21.192;2022-09-25T11:00:30;8.90;;;4.50;;
39176;SDS011;24904;52.208;21.192;2022-09-25T11:05:46;7.70;;;5.40;;
39176;SDS011;24904;52.208;21.192;2022-09-25T11:10:57;7.90;;;5.20;;
39176;SDS011;24904;52.208;21.192;2022-09-25T11:16:06;6.90;;;4.90;;
39176;SDS011;24904;52.208;21.192;2022-09-25T11:21:22;6.60;;;4.90;;
39176;SDS011;24904;52.208;21.192;2022-09-25T11:26:35;8.60;;;5.50;;
39176;SDS011;24904;52.208;21.192;2022-09-25T11:31:46;8.30;;;5.90;;
39176;SDS011;24904;52.208;21.192;2022-09-25T11:37:00;8.80;;;5.50;;
39176;SDS011;24904;52.208;21.192;2022-09-25T11:42:12;9.40;;;5.70;;
39176;SDS011;24904;52.208;21.192;2022-09-25T11:47:23;9.10;;;5.50;;
39176;SDS011;24904;52.208;21.192;2022-09-25T11:52:40;8.80;;;5.70;;
39176;SDS011;24904;52.208;21.192;2022-09-25T11:57:58;7.20;;;5.30;;
39176;SDS011;24904;52.208;21.192;2022-09-25T12:03:26;7.40;;;5.10;;
39176;SDS011;24904;52.208;21.192;2022-09-25T12:08:49;7.80;;;5.20;;
39176;SDS011;24904;52.208;21.192;2022-09-25T12:14:11;9.10;;;4.90;;
39176;SDS011;24904;52.208;21.192;2022-09-25T12:19:35;7.00;;;4.90;;
39176;SDS011;24904;52.208;21.192;2022-09-25T12:24:54;7.60;;;4.80;;
39176;SDS011;24904;52.208;21.192;2022-09-25T12:30:10;9.40;;;4.40;;
39176;SDS011;24904;52.208;21.192;2022-09-25T12:35:31;9.60;;;5.10;;
39176;SDS011;24904;52.208;21.192;2022-09-25T12:40:45;6.00;;;4.70;;
39176;SDS011;24904;52.208;21.192;2022-09-25T12:45:57;7.10;;;4.80;;
39176;SDS011;24904;52.208;21.192;2022-09-25T12:51:12;6.20;;;4.60;;
39176;SDS011;24904;52.208;21.192;2022-09-25T12:56:28;5.80;;;4.50;;
39176;SDS011;24904;52.208;21.192;2022-09-25T13:01:48;6.20;;;4.30;;
39176;SDS011;24904;52.208;21.192;2022-09-25T13:07:05;7.10;;;4.30;;
39176;SDS011;24904;52.208;21.192;2022-09-25T13:12:18;6.70;;;5.10;;
39176;SDS011;24904;52.208;21.192;2022-09-25T13:17:30;8.30;;;4.90;;
39176;SDS011;24904;52.208;21.192;2022-09-25T13:22:34;6.90;;;4.50;;
39176;SDS011;24904;52.208;21.192;2022-09-25T13:27:44;5.90;;;4.20;;
39176;SDS011;24904;52.208;21.192;2022-09-25T13:32:49;6.40;;;4.80;;
39176;SDS011;24904;52.208;21.192;2022-09-25T13:38:07;8.50;;;5.60;;
39176;SDS011;24904;52.208;21.192;2022-09-25T13:43:36;8.40;;;5.10;;
39176;SDS011;24904;52.208;21.192;2022-09-25T13:48:42;7.30;;;4.70;;
39176;SDS011;24904;52.208;21.192;2022-09-25T13:53:49;10.50;;;6.00;;
39176;SDS011;24904;52.208;21.192;2022-09-25T13:59:01;7.30;;;5.40;;
39176;SDS011;24904;52.208;21.192;2022-09-25T14:04:29;12.20;;;7.20;;
39176;SDS011;24904;52.208;21.192;2022-09-25T14:09:39;8.90;;;6.50;;
39176;SDS011;24904;52.208;21.192;2022-09-25T14:14:49;11.20;;;6.60;;
39176;SDS011;24904;52.208;21.192;2022-09-25T14:19:58;7.70;;;6.10;;
39176;SDS011;24904;52.208;21.192;2022-09-25T14:30:34;9.80;;;6.50;;
39176;SDS011;24904;52.208;21.192;2022-09-25T14:35:42;10.40;;;6.40;;
39176;SDS011;24904;52.208;21.192;2022-09-25T14:41:02;8.50;;;6.30;;
39176;SDS011;24904;52.208;21.192;2022-09-25T14:46:23;10.10;;;5.40;;
39176;SDS011;24904;52.208;21.192;2022-09-25T14:51:33;7.50;;;5.50;;
39176;SDS011;24904;52.208;21.192;2022-09-25T14:56:43;12.90;;;6.30;;
39176;SDS011;24904;52.208;21.192;2022-09-25T15:01:52;8.50;;;5.30;;
39176;SDS011;24904;52.208;21.192;2022-09-25T15:07:02;8.00;;;5.80;;
39176;SDS011;24904;52.208;21.192;2022-09-25T15:12:19;12.80;;;5.90;;
39176;SDS011;24904;52.208;21.192;2022-09-25T15:17:27;7.70;;;5.60;;
39176;SDS011;24904;52.208;21.192;2022-09-25T15:22:34;12.70;;;6.90;;
39176;SDS011;24904;52.208;21.192;2022-09-25T15:27:41;8.40;;;6.00;;
39176;SDS011;24904;52.208;21.192;2022-09-25T15:32:47;8.70;;;5.70;;
39176;SDS011;24904;52.208;21.192;2022-09-25T15:38:06;8.70;;;5.80;;
39176;SDS011;24904;52.208;21.192;2022-09-25T15:43:15;10.10;;;5.90;;
39176;SDS011;24904;52.208;21.192;2022-09-25T15:48:23;7.70;;;6.10;;
39176;SDS011;24904;52.208;21.192;2022-09-25T15:53:33;9.70;;;7.40;;
39176;SDS011;24904;52.208;21.192;2022-09-25T15:58:46;13.50;;;9.30;;
39176;SDS011;24904;52.208;21.192;2022-09-25T16:03:54;13.00;;;8.50;;
39176;SDS011;24904;52.208;21.192;2022-09-25T16:09:22;22.20;;;8.70;;
39176;SDS011;24904;52.208;21.192;2022-09-25T16:14:32;21.40;;;7.90;;
39176;SDS011;24904;52.208;21.192;2022-09-25T16:19:39;31.40;;;16.70;;
39176;SDS011;24904;52.208;21.192;2022-09-25T16:24:45;14.00;;;7.50;;
39176;SDS011;24904;52.208;21.192;2022-09-25T16:29:54;15.80;;;9.40;;
39176;SDS011;24904;52.208;21.192;2022-09-25T16:35:02;15.90;;;10.60;;
39176;SDS011;24904;52.208;21.192;2022-09-25T16:45:34;16.70;;;12.70;;
39176;SDS011;24904;52.208;21.192;2022-09-25T16:50:38;12.60;;;8.70;;
39176;SDS011;24904;52.208;21.192;2022-09-25T16:55:45;10.00;;;7.80;;
39176;SDS011;24904;52.208;21.192;2022-09-25T17:00:55;14.90;;;8.90;;
39176;SDS011;24904;52.208;21.192;2022-09-25T17:06:02;19.70;;;14.20;;
39176;SDS011;24904;52.208;21.192;2022-09-25T17:11:09;25.70;;;15.70;;
39176;SDS011;24904;52.208;21.192;2022-09-25T17:16:15;21.90;;;16.10;;
39176;SDS011;24904;52.208;21.192;2022-09-25T17:21:21;21.30;;;14.00;;
39176;SDS011;24904;52.208;21.192;2022-09-25T17:26:26;20.70;;;14.50;;
39176;SDS011;24904;52.208;21.192;2022-09-25T17:31:32;23.00;;;16.80;;
39176;SDS011;24904;52.208;21.192;2022-09-25T17:36:39;23.00;;;16.10;;
39176;SDS011;24904;52.208;21.192;2022-09-25T17:41:45;22.90;;;15.00;;
39176;SDS011;24904;52.208;21.192;2022-09-25T17:46:50;21.30;;;13.30;;
39176;SDS011;24904;52.208;21.192;2022-09-25T17:51:57;21.70;;;13.00;;
39176;SDS011;24904;52.208;21.192;2022-09-25T17:57:03;22.60;;;13.20;;
39176;SDS011;24904;52.208;21.192;2022-09-25T18:02:12;21.00;;;13.50;;
39176;SDS011;24904;52.208;21.192;2022-09-25T18:07:18;20.60;;;12.50;;
39176;SDS011;24904;52.208;21.192;2022-09-25T18:12:24;22.70;;;14.20;;
39176;SDS011;24904;52.208;21.192;2022-09-25T18:17:29;18.50;;;12.70;;
39176;SDS011;24904;52.208;21.192;2022-09-25T18:22:34;29.70;;;17.70;;
39176;SDS011;24904;52.208;21.192;2022-09-25T18:27:39;28.40;;;17.00;;
39176;SDS011;24904;52.208;21.192;2022-09-25T18:32:45;23.50;;;14.90;;
39176;SDS011;24904;52.208;21.192;2022-09-25T18:37:52;21.50;;;15.10;;
39176;SDS011;24904;52.208;21.192;2022-09-25T18:42:59;23.20;;;14.80;;
39176;SDS011;24904;52.208;21.192;2022-09-25T18:48:05;19.00;;;12.50;;
39176;SDS011;24904;52.208;21.192;2022-09-25T18:53:11;21.20;;;13.20;;
39176;SDS011;24904;52.208;21.192;2022-09-25T18:58:18;25.40;;;13.90;;
39176;SDS011;24904;52.208;21.192;2022-09-25T19:03:28;17.80;;;13.10;;
39176;SDS011;24904;52.208;21.192;2022-09-25T19:08:34;20.20;;;13.00;;
39176;SDS011;24904;52.208;21.192;2022-09-25T19:13:40;20.70;;;14.50;;
39176;SDS011;24904;52.208;21.192;2022-09-25T19:18:46;24.50;;;16.40;;
39176;SDS011;24904;52.208;21.192;2022-09-25T19:23:51;23.60;;;16.90;;
39176;SDS011;24904;52.208;21.192;2022-09-25T19:28:55;21.80;;;16.40;;
39176;SDS011;24904;52.208;21.192;2022-09-25T19:33:59;24.10;;;17.30;;
39176;SDS011;24904;52.208;21.192;2022-09-25T19:39:03;22.90;;;15.90;;
39176;SDS011;24904;52.208;21.192;2022-09-25T19:44:07;28.10;;;19.30;;
39176;SDS011;24904;52.208;21.192;2022-09-25T19:49:13;25.80;;;18.30;;
39176;SDS011;24904;52.208;21.192;2022-09-25T19:54:18;24.90;;;17.40;;
39176;SDS011;24904;52.208;21.192;2022-09-25T19:59:23;26.60;;;17.90;;
39176;SDS011;24904;52.208;21.192;2022-09-25T20:04:27;27.60;;;18.30;;
39176;SDS011;24904;52.208;21.192;2022-09-25T20:09:32;31.60;;;19.10;;
39176;SDS011;24904;52.208;21.192;2022-09-25T20:14:38;31.90;;;18.90;;
39176;SDS011;24904;52.208;21.192;2022-09-25T20:19:44;31.40;;;19.80;;
39176;SDS011;24904;52.208;21.192;2022-09-25T20:24:49;31.00;;;21.00;;
39176;SDS011;24904;52.208;21.192;2022-09-25T20:29:57;32.90;;;22.30;;
39176;SDS011;24904;52.208;21.192;2022-09-25T20:35:05;32.20;;;21.90;;
39176;SDS011;24904;52.208;21.192;2022-09-25T20:40:13;36.20;;;24.00;;
39176;SDS011;24904;52.208;21.192;2022-09-25T20:45:19;34.40;;;22.40;;
39176;SDS011;24904;52.208;21.192;2022-09-25T20:50:29;37.00;;;24.20;;
39176;SDS011;24904;52.208;21.192;2022-09-25T20:55:34;35.40;;;23.80;;
39176;SDS011;24904;52.208;21.192;2022-09-25T21:00:39;45.10;;;26.80;;
39176;SDS011;24904;52.208;21.192;2022-09-25T21:05:44;39.80;;;26.30;;
39176;SDS011;24904;52.208;21.192;2022-09-25T21:10:49;45.00;;;28.60;;
39176;SDS011;24904;52.208;21.192;2022-09-25T21:16:00;44.30;;;29.00;;
39176;SDS011;24904;52.208;21.192;2022-09-25T21:21:06;46.60;;;27.90;;
39176;SDS011;24904;52.208;21.192;2022-09-25T21:26:13;45.90;;;30.40;;
39176;SDS011;24904;52.208;21.192;2022-09-25T21:31:20;42.20;;;28.10;;
39176;SDS011;24904;52.208;21.192;2022-09-25T21:36:26;41.90;;;26.30;;
39176;SDS011;24904;52.208;21.192;2022-09-25T21:41:32;36.60;;;26.90;;
39176;SDS011;24904;52.208;21.192;2022-09-25T21:46:36;37.80;;;25.80;;
39176;SDS011;24904;52.208;21.192;2022-09-25T21:51:41;43.70;;;28.40;;
39176;SDS011;24904;52.208;21.192;2022-09-25T21:56:47;36.60;;;25.80;;
39176;SDS011;24904;52.208;21.192;2022-09-25T22:01:52;37.30;;;26.20;;
39176;SDS011;24904;52.208;21.192;2022-09-25T22:06:59;35.50;;;24.80;;
39176;SDS011;24904;52.208;21.192;2022-09-25T22:12:05;35.30;;;24.80;;
39176;SDS011;24904;52.208;21.192;2022-09-25T22:17:10;36.20;;;24.80;;
39176;SDS011;24904;52.208;21.192;2022-09-25T22:22:15;36.60;;;23.30;;
39176;SDS011;24904;52.208;21.192;2022-09-25T22:27:20;34.20;;;25.00;;
39176;SDS011;24904;52.208;21.192;2022-09-25T22:32:26;33.80;;;23.50;;
39176;SDS011;24904;52.208;21.192;2022-09-25T22:37:33;38.70;;;25.60;;
39176;SDS011;24904;52.208;21.192;2022-09-25T22:42:39;37.50;;;24.60;;
39176;SDS011;24904;52.208;21.192;2022-09-25T22:47:44;38.90;;;25.20;;
39176;SDS011;24904;52.208;21.192;2022-09-25T22:52:50;36.70;;;24.90;;
39176;SDS011;24904;52.208;21.192;2022-09-25T22:57:57;33.70;;;25.00;;
39176;SDS011;24904;52.208;21.192;2022-09-25T23:03:02;40.60;;;24.40;;
39176;SDS011;24904;52.208;21.192;2022-09-25T23:08:09;35.00;;;24.90;;
39176;SDS011;24904;52.208;21.192;2022-09-25T23:13:15;39.20;;;24.90;;
39176;SDS011;24904;52.208;21.192;2022-09-25T23:18:21;36.30;;;24.80;;
39176;SDS011;24904;52.208;21.192;2022-09-25T23:23:27;41.10;;;25.70;;
39176;SDS011;24904;52.208;21.192;2022-09-25T23:28:33;42.20;;;25.90;;
39176;SDS011;24904;52.208;21.192;2022-09-25T23:33:43;35.40;;;25.50;;
39176;SDS011;24904;52.208;21.192;2022-09-25T23:38:49;39.20;;;25.10;;
39176;SDS011;24904;52.208;21.192;2022-09-25T23:43:56;34.20;;;25.00;;
39176;SDS011;24904;52.208;21.192;2022-09-25T23:49:04;34.30;;;23.90;;
39176;SDS011;24904;52.208;21.192;2022-09-25T23:54:12;37.90;;;26.00;;
39176;SDS011;24904;52.208;21.192;2022-09-25T23:59:19;34.90;;;24.40;;
